KLXN

Jim Kelly Field Airport

Lexington, Nebraska, USA
METAR KLXN 201015Z AUTO 20003KT 10SM CLR M05/M07 A3006 RMK AO2 T10551074
Observed Flight Rules
Jan-20 @ 10:15 UTC (42 minutes ago) Visual Flight Rules
Wind Visibility Clouds
200° at 3 knots 10 miles
  • Clear skies
Temperatures Readings
Current -6°C / 21°F
Dewpoint -7°C / 19°F
Humidity 93%
Altimeter 30.06" Hg
Pressure 1017.92 hPa
Elevation 734
METAR KLXN 201015Z AUTO 20003KT 10SM CLR M05/M07 A3006 RMK AO2 T10551074
Observed Flight Rules
Jan-20 @ 10:15 UTC
(42 minutes ago)
VFR
Wind Visibility
200° at 3 knots 10 miles
Clouds
  • Clear skies
Temperature Dewpoint
-6°C / 21°F -7°C / 19°F
Humidity Altimeter Pressure
93% 30.06" Hg 1017.92 hPa